Time;durP1;ratioP1;P1;durP2;ratioP2;P2;SDS_P1;SDS_P2;PMS_P1;PMS_P2;Temp;Humidity;BMP_temperature;BMP_pressure;BME280_temperature;BME280_humidity;BME280_pressure;Samples;Min_cycle;Max_cycle;Signal;HPM_P1;HPM_P2
2021/12/17 00:02:28;;;;;;;16.00;12.85;;;;;;;;;;5072389;28;20060;-88
2021/12/17 00:07:01;;;;;;;15.98;13.38;;;;;;;;;;5090063;28;20020;-83
2021/12/17 00:09:27;;;;;;;14.82;12.40;;;;;;;;;;5069841;28;20052;-88
2021/12/17 00:11:52;;;;;;;15.30;12.00;;;;;;;;;;5075589;28;20078;-85
2021/12/17 00:14:26;;;;;;;15.77;12.27;;;;;;;;;;5093173;28;20055;-88
2021/12/17 00:16:58;;;;;;;14.85;12.43;;;;;;;;;;5087146;28;20067;-85
2021/12/17 00:20:09;;;;;;;15.40;12.20;;;;;;;;;;5094272;28;20031;-83
2021/12/17 00:49:29;;;;;;;14.02;11.85;;;;;;;;;;5090954;28;20036;-85
2021/12/17 00:54:24;;;;;;;17.42;11.63;;;;;;;;;;5093424;28;20026;-88
2021/12/17 00:56:52;;;;;;;14.45;12.05;;;;;;;;;;5093435;28;20065;-83
2021/12/17 00:59:18;;;;;;;13.50;10.90;;;;;;;;;;5090943;28;20485;-91
2021/12/17 01:01:44;;;;;;;14.57;11.52;;;;;;;;;;5091400;28;20035;-85
2021/12/17 01:04:10;;;;;;;14.70;11.65;;;;;;;;;;5090112;28;20583;-87
2021/12/17 01:06:36;;;;;;;13.55;11.63;;;;;;;;;;5090388;28;20043;-86
2021/12/17 01:09:03;;;;;;;14.55;12.40;;;;;;;;;;5099948;28;20039;-88
2021/12/17 01:11:29;;;;;;;14.23;11.95;;;;;;;;;;5086647;28;20483;-88
2021/12/17 01:13:54;;;;;;;14.00;11.40;;;;;;;;;;5090470;28;20075;-83
2021/12/17 01:16:20;;;;;;;14.27;11.82;;;;;;;;;;5088937;28;20044;-85
2021/12/17 01:21:32;;;;;;;16.15;12.07;;;;;;;;;;5086730;28;20026;-85
2021/12/17 01:24:31;;;;;;;15.98;11.98;;;;;;;;;;5070454;28;20032;-90
2021/12/17 01:43:13;;;;;;;14.32;11.93;;;;;;;;;;5091506;28;20062;-85
2021/12/17 01:45:41;;;;;;;13.43;10.90;;;;;;;;;;5071720;28;20020;-85
2021/12/17 01:48:11;;;;;;;16.40;12.07;;;;;;;;;;5092890;28;20019;-88
2021/12/17 02:01:33;;;;;;;15.75;11.95;;;;;;;;;;5087230;28;20391;-91
2021/12/17 02:03:58;;;;;;;15.52;12.27;;;;;;;;;;5071008;28;20039;-89
2021/12/17 02:06:24;;;;;;;13.55;11.15;;;;;;;;;;5069680;28;20020;-91
2021/12/17 02:08:52;;;;;;;15.00;12.30;;;;;;;;;;5074497;28;20028;-91
2021/12/17 02:32:40;;;;;;;17.17;13.73;;;;;;;;;;5089496;28;20124;-83
2021/12/17 02:37:41;;;;;;;18.35;13.43;;;;;;;;;;5087390;28;20077;-91
2021/12/17 02:45:31;;;;;;;15.35;12.75;;;;;;;;;;5088158;28;20052;-84
2021/12/17 02:45:33;;;;;;;16.52;13.18;;;;;;;;;;5088274;28;20031;-90
2021/12/17 02:48:14;;;;;;;17.05;13.00;;;;;;;;;;5071713;28;20081;-86
2021/12/17 02:50:43;;;;;;;14.90;12.20;;;;;;;;;;5068119;28;20063;-88
2021/12/17 02:53:10;;;;;;;16.63;12.75;;;;;;;;;;5086111;28;20490;-91
2021/12/17 02:55:37;;;;;;;17.58;13.07;;;;;;;;;;5090716;28;20142;-88
2021/12/17 02:58:04;;;;;;;18.08;13.43;;;;;;;;;;5084155;28;20035;-92
2021/12/17 03:00:30;;;;;;;14.60;12.25;;;;;;;;;;5069424;28;20052;-83
2021/12/17 03:02:56;;;;;;;18.55;13.25;;;;;;;;;;5089649;28;20066;-88
2021/12/17 03:05:23;;;;;;;17.15;13.13;;;;;;;;;;5072427;28;20055;-85
2021/12/17 03:07:49;;;;;;;15.82;13.18;;;;;;;;;;5067813;28;20028;-83
2021/12/17 03:10:15;;;;;;;16.55;13.15;;;;;;;;;;5065100;28;20111;-85
2021/12/17 03:12:57;;;;;;;16.30;12.80;;;;;;;;;;5090020;28;20111;-88
2021/12/17 03:23:40;;;;;;;19.38;14.20;;;;;;;;;;5089225;28;20039;-88
2021/12/17 03:26:26;;;;;;;17.65;13.52;;;;;;;;;;5067772;28;21166;-87
2021/12/17 03:28:55;;;;;;;17.38;13.35;;;;;;;;;;5069130;28;20024;-87
2021/12/17 03:31:22;;;;;;;19.33;14.23;;;;;;;;;;5070411;28;20229;-88
2021/12/17 03:33:49;;;;;;;17.35;13.40;;;;;;;;;;5086213;28;21558;-85
2021/12/17 03:36:17;;;;;;;19.02;14.82;;;;;;;;;;5071640;28;20475;-85
2021/12/17 03:38:45;;;;;;;19.67;14.70;;;;;;;;;;5069574;28;20032;-85
2021/12/17 03:43:40;;;;;;;18.38;14.60;;;;;;;;;;5079368;28;20029;-88
2021/12/17 03:46:05;;;;;;;18.52;14.57;;;;;;;;;;5067399;28;20485;-90
2021/12/17 03:48:34;;;;;;;20.02;14.77;;;;;;;;;;5068586;28;20115;-91
2021/12/17 03:51:00;;;;;;;19.42;14.65;;;;;;;;;;5072400;28;20020;-88
2021/12/17 03:53:25;;;;;;;19.92;15.40;;;;;;;;;;5087736;28;20115;-91
2021/12/17 03:55:50;;;;;;;22.67;15.43;;;;;;;;;;5089570;28;20020;-86
2021/12/17 03:58:17;;;;;;;18.95;13.98;;;;;;;;;;5072035;28;20032;-90
2021/12/17 04:00:43;;;;;;;18.27;14.43;;;;;;;;;;5065374;28;20467;-88
2021/12/17 04:03:08;;;;;;;19.17;13.95;;;;;;;;;;5069456;28;20028;-83
2021/12/17 04:05:34;;;;;;;18.58;14.20;;;;;;;;;;5073112;28;20116;-83
2021/12/17 04:07:59;;;;;;;18.65;13.85;;;;;;;;;;5065580;28;20110;-89
2021/12/17 04:10:27;;;;;;;19.52;14.38;;;;;;;;;;5071749;28;20479;-88
2021/12/17 04:12:58;;;;;;;20.48;14.52;;;;;;;;;;5090850;28;20111;-83
2021/12/17 04:15:33;;;;;;;19.95;14.77;;;;;;;;;;5069686;28;20269;-88
2021/12/17 04:17:59;;;;;;;22.40;14.23;;;;;;;;;;5070406;28;20502;-83
2021/12/17 04:20:25;;;;;;;20.48;14.32;;;;;;;;;;5071736;28;20051;-91
2021/12/17 04:22:50;;;;;;;22.48;14.05;;;;;;;;;;5069172;28;20031;-84
2021/12/17 04:25:15;;;;;;;18.70;14.63;;;;;;;;;;5090212;28;20024;-85
2021/12/17 04:27:41;;;;;;;17.80;13.70;;;;;;;;;;5071065;28;20076;-88
2021/12/17 04:30:06;;;;;;;19.48;13.45;;;;;;;;;;5069933;28;20115;-91
2021/12/17 04:32:32;;;;;;;19.77;14.13;;;;;;;;;;5074580;28;20039;-84
2021/12/17 04:34:57;;;;;;;19.90;15.10;;;;;;;;;;5074321;28;20476;-83
2021/12/17 04:37:23;;;;;;;20.55;15.30;;;;;;;;;;5091236;28;20110;-84
2021/12/17 04:39:49;;;;;;;21.08;14.90;;;;;;;;;;5075188;28;20071;-83
2021/12/17 04:42:18;;;;;;;20.60;14.32;;;;;;;;;;5071674;28;20023;-83
2021/12/17 04:44:51;;;;;;;18.90;14.23;;;;;;;;;;5073211;28;20027;-90
2021/12/17 04:57:58;;;;;;;20.02;13.70;;;;;;;;;;5089687;28;20062;-86
2021/12/17 05:00:27;;;;;;;18.95;13.05;;;;;;;;;;5074947;28;20395;-85
2021/12/17 05:02:55;;;;;;;17.88;13.90;;;;;;;;;;5070238;28;20039;-87
2021/12/17 05:05:26;;;;;;;19.98;13.30;;;;;;;;;;5070696;28;20035;-84
2021/12/17 05:07:59;;;;;;;22.92;15.20;;;;;;;;;;5072372;28;20560;-88
2021/12/17 05:20:50;;;;;;;18.75;13.30;;;;;;;;;;5090347;28;20052;-84
2021/12/17 05:23:22;;;;;;;21.13;13.48;;;;;;;;;;5065408;28;20115;-85
2021/12/17 05:25:47;;;;;;;22.40;14.57;;;;;;;;;;5073897;28;20073;-91
2021/12/17 05:28:12;;;;;;;21.38;14.13;;;;;;;;;;5094140;28;22040;-85
2021/12/17 05:30:44;;;;;;;19.90;13.68;;;;;;;;;;5090348;28;21844;-89
2021/12/17 05:33:09;;;;;;;20.65;14.43;;;;;;;;;;5070701;28;20403;-89
2021/12/17 05:35:35;;;;;;;20.00;13.88;;;;;;;;;;5073548;28;20020;-84
2021/12/17 05:38:00;;;;;;;22.25;13.93;;;;;;;;;;5074619;28;20472;-88
2021/12/17 05:40:26;;;;;;;21.02;14.50;;;;;;;;;;5074842;28;20062;-82
2021/12/17 05:42:55;;;;;;;22.58;14.68;;;;;;;;;;5073667;28;20089;-82
2021/12/17 05:45:34;;;;;;;22.65;14.65;;;;;;;;;;5073517;28;20046;-84
2021/12/17 05:48:06;;;;;;;22.90;15.38;;;;;;;;;;5085059;28;20024;-91
2021/12/17 05:50:33;;;;;;;24.20;14.50;;;;;;;;;;5067268;28;20071;-85
2021/12/17 05:52:59;;;;;;;24.30;15.25;;;;;;;;;;5067594;28;20035;-87
2021/12/17 05:55:24;;;;;;;24.58;15.63;;;;;;;;;;5070132;28;20459;-91
2021/12/17 05:57:52;;;;;;;22.52;14.50;;;;;;;;;;5068143;28;20406;-84
2021/12/17 06:00:17;;;;;;;22.73;13.82;;;;;;;;;;5082230;28;20035;-83
2021/12/17 06:02:43;;;;;;;23.13;14.73;;;;;;;;;;5089413;28;20024;-92
2021/12/17 06:05:08;;;;;;;25.33;15.45;;;;;;;;;;5071913;28;20032;-88
2021/12/17 06:07:33;;;;;;;24.70;14.85;;;;;;;;;;5067122;28;20028;-83
2021/12/17 06:10:08;;;;;;;24.20;14.82;;;;;;;;;;5071030;28;20439;-86
2021/12/17 06:12:48;;;;;;;30.55;15.43;;;;;;;;;;5089279;28;20380;-90
2021/12/17 06:15:16;;;;;;;24.67;14.35;;;;;;;;;;5071218;28;20050;-88
2021/12/17 06:17:42;;;;;;;24.20;14.52;;;;;;;;;;5087278;28;20471;-88
2021/12/17 06:20:10;;;;;;;26.45;15.23;;;;;;;;;;5070947;28;20020;-88
2021/12/17 06:22:36;;;;;;;27.02;14.68;;;;;;;;;;5070066;28;20016;-91
2021/12/17 06:25:03;;;;;;;27.40;15.05;;;;;;;;;;5072913;28;20016;-91
2021/12/17 06:27:28;;;;;;;23.02;14.40;;;;;;;;;;5087106;28;20016;-85
2021/12/17 06:29:54;;;;;;;26.48;14.32;;;;;;;;;;5071576;28;20166;-89
2021/12/17 06:32:21;;;;;;;25.80;14.30;;;;;;;;;;5074546;28;20076;-88
2021/12/17 06:34:47;;;;;;;28.95;14.65;;;;;;;;;;5072212;28;20032;-88
2021/12/17 06:37:15;;;;;;;25.67;14.18;;;;;;;;;;5072142;28;20032;-84
2021/12/17 06:39:40;;;;;;;26.15;14.45;;;;;;;;;;5071081;28;20028;-88
2021/12/17 06:42:06;;;;;;;29.45;14.20;;;;;;;;;;5072652;28;20024;-89
2021/12/17 06:44:32;;;;;;;30.45;14.88;;;;;;;;;;5093192;28;20020;-91
2021/12/17 06:47:12;;;;;;;31.17;15.43;;;;;;;;;;5086614;28;20027;-90
2021/12/17 07:00:22;;;;;;;27.10;13.70;;;;;;;;;;5087930;28;20100;-86
2021/12/17 07:23:21;;;;;;;26.77;12.90;;;;;;;;;;5030600;28;20041;-87
2021/12/17 07:32:13;;;;;;;28.52;13.02;;;;;;;;;;5090873;28;20488;-88
2021/12/17 07:34:06;;;;;;;29.33;13.80;;;;;;;;;;5084125;28;20424;-85
2021/12/17 07:36:40;;;;;;;29.98;13.95;;;;;;;;;;5068955;28;20032;-85
2021/12/17 07:39:06;;;;;;;30.23;13.45;;;;;;;;;;5084614;28;20837;-87
2021/12/17 07:41:31;;;;;;;31.58;13.93;;;;;;;;;;5089850;28;20161;-90
2021/12/17 07:43:59;;;;;;;34.20;15.13;;;;;;;;;;5071177;28;20044;-88
2021/12/17 07:46:25;;;;;;;26.80;12.95;;;;;;;;;;5069889;28;20383;-89
2021/12/17 07:48:51;;;;;;;32.42;14.13;;;;;;;;;;5066594;28;20031;-90
2021/12/17 07:51:19;;;;;;;29.55;13.63;;;;;;;;;;5069266;28;20026;-89
2021/12/17 07:53:45;;;;;;;29.70;12.70;;;;;;;;;;5066928;28;20017;-83
2021/12/17 07:56:12;;;;;;;29.58;13.27;;;;;;;;;;5068200;28;20040;-87
2021/12/17 07:58:39;;;;;;;33.95;14.40;;;;;;;;;;5068645;28;20028;-84
2021/12/17 08:01:05;;;;;;;31.38;14.02;;;;;;;;;;5065973;28;20024;-83
2021/12/17 08:03:31;;;;;;;30.90;14.00;;;;;;;;;;5072532;28;20025;-85
2021/12/17 08:05:57;;;;;;;34.75;14.07;;;;;;;;;;5074794;28;20095;-91
2021/12/17 08:08:25;;;;;;;34.75;13.65;;;;;;;;;;5076790;28;20039;-84
2021/12/17 08:10:50;;;;;;;30.20;13.10;;;;;;;;;;5086088;28;20464;-83
2021/12/17 08:13:30;;;;;;;31.23;13.10;;;;;;;;;;5087469;28;20028;-88
2021/12/17 08:16:20;;;;;;;27.33;12.82;;;;;;;;;;5067562;28;20510;-83
2021/12/17 08:29:45;;;;;;;24.42;11.10;;;;;;;;;;5086522;28;20024;-82
2021/12/17 08:32:10;;;;;;;25.50;10.30;;;;;;;;;;5093772;28;20126;-89
2021/12/17 08:34:36;;;;;;;29.58;12.30;;;;;;;;;;5094386;28;20431;-82
2021/12/17 08:37:08;;;;;;;30.63;13.00;;;;;;;;;;5093938;28;20032;-83
2021/12/17 08:39:33;;;;;;;26.77;12.10;;;;;;;;;;5089032;28;20047;-83
2021/12/17 08:42:00;;;;;;;23.85;10.80;;;;;;;;;;5088177;28;20025;-83
2021/12/17 08:44:25;;;;;;;23.95;11.38;;;;;;;;;;5091277;28;20023;-83
2021/12/17 08:46:51;;;;;;;30.48;13.50;;;;;;;;;;5089864;28;20016;-88
2021/12/17 08:49:16;;;;;;;28.48;12.35;;;;;;;;;;5095163;28;20020;-88
2021/12/17 08:51:43;;;;;;;26.60;11.50;;;;;;;;;;5098066;28;20027;-87
2021/12/17 08:54:09;;;;;;;25.73;11.32;;;;;;;;;;5088689;28;20023;-82
2021/12/17 08:56:42;;;;;;;25.38;11.52;;;;;;;;;;5094860;28;20012;-88
2021/12/17 08:59:08;;;;;;;27.55;12.43;;;;;;;;;;5093964;28;20120;-83
2021/12/17 09:01:34;;;;;;;28.20;12.82;;;;;;;;;;5093375;28;20033;-90
2021/12/17 09:04:00;;;;;;;24.05;11.30;;;;;;;;;;5092093;28;20029;-82
2021/12/17 09:06:39;;;;;;;25.42;11.55;;;;;;;;;;5089647;28;20035;-92
2021/12/17 09:09:05;;;;;;;25.30;11.48;;;;;;;;;;5094356;23;20045;-88
2021/12/17 09:11:31;;;;;;;26.77;11.40;;;;;;;;;;5052801;28;20495;-92
2021/12/17 09:14:01;;;;;;;22.38;10.25;;;;;;;;;;5054647;28;20029;-83
2021/12/17 09:16:29;;;;;;;24.13;11.18;;;;;;;;;;5054744;28;20021;-87
2021/12/17 09:18:58;;;;;;;22.45;9.82;;;;;;;;;;5055609;28;20029;-88
2021/12/17 09:21:25;;;;;;;24.48;10.73;;;;;;;;;;5053917;28;20484;-91
2021/12/17 09:24:00;;;;;;;23.98;10.18;;;;;;;;;;5053758;28;20028;-83
2021/12/17 09:26:33;;;;;;;23.83;10.43;;;;;;;;;;5077990;28;20021;-83
2021/12/17 09:29:02;;;;;;;21.05;9.38;;;;;;;;;;5051842;28;20472;-84
2021/12/17 09:31:30;;;;;;;21.38;9.38;;;;;;;;;;5046540;28;20485;-83
2021/12/17 09:33:56;;;;;;;22.88;9.63;;;;;;;;;;5051290;28;20506;-84
2021/12/17 09:36:22;;;;;;;23.70;9.95;;;;;;;;;;5050967;28;20060;-83
2021/12/17 09:38:52;;;;;;;22.13;9.02;;;;;;;;;;5052590;28;20024;-91
2021/12/17 09:41:22;;;;;;;21.73;9.90;;;;;;;;;;5051570;28;20028;-91
2021/12/17 09:43:48;;;;;;;20.92;9.18;;;;;;;;;;5048657;28;20075;-91
2021/12/17 09:46:14;;;;;;;24.27;10.25;;;;;;;;;;5048759;28;20025;-88
2021/12/17 09:48:48;;;;;;;21.25;9.68;;;;;;;;;;5049640;28;20048;-83
2021/12/17 09:51:15;;;;;;;20.70;8.68;;;;;;;;;;5054625;28;20104;-90
2021/12/17 09:53:41;;;;;;;21.08;9.07;;;;;;;;;;5043537;28;20052;-89
2021/12/17 09:56:07;;;;;;;23.67;9.77;;;;;;;;;;5055158;28;20068;-84
2021/12/17 09:58:37;;;;;;;19.75;9.05;;;;;;;;;;5048659;28;20502;-84
2021/12/17 10:01:04;;;;;;;23.40;9.55;;;;;;;;;;5066823;28;20032;-91
2021/12/17 10:03:29;;;;;;;22.45;9.45;;;;;;;;;;5049222;28;20029;-84
2021/12/17 10:05:55;;;;;;;20.63;9.15;;;;;;;;;;5050275;28;20075;-92
2021/12/17 10:08:23;;;;;;;21.35;9.00;;;;;;;;;;5043253;28;20136;-83
2021/12/17 10:11:02;;;;;;;19.90;8.98;;;;;;;;;;5042083;28;20028;-83
2021/12/17 10:13:32;;;;;;;21.13;7.78;;;;;;;;;;5045630;28;20077;-88
2021/12/17 10:16:07;;;;;;;20.63;8.75;;;;;;;;;;5044416;28;20021;-89
2021/12/17 10:18:46;;;;;;;20.45;8.38;;;;;;;;;;5043075;28;20255;-91
2021/12/17 10:21:32;;;;;;;20.70;8.43;;;;;;;;;;5057849;28;20132;-89
2021/12/17 10:23:58;;;;;;;19.35;8.10;;;;;;;;;;5047992;28;20396;-91
2021/12/17 10:26:26;;;;;;;19.92;8.10;;;;;;;;;;5046758;28;20021;-84
2021/12/17 10:28:55;;;;;;;17.17;7.25;;;;;;;;;;5054072;28;20024;-83
2021/12/17 10:31:21;;;;;;;20.88;8.35;;;;;;;;;;5059615;28;20116;-88
2021/12/17 10:33:52;;;;;;;17.23;7.45;;;;;;;;;;5052485;28;20029;-83
2021/12/17 10:36:18;;;;;;;22.65;7.53;;;;;;;;;;5052027;28;20049;-82
2021/12/17 10:38:44;;;;;;;16.25;6.88;;;;;;;;;;5047903;28;20029;-88
2021/12/17 10:41:14;;;;;;;20.63;7.65;;;;;;;;;;5051913;28;20055;-83
2021/12/17 10:43:50;;;;;;;16.02;7.18;;;;;;;;;;5046610;28;20039;-91
2021/12/17 10:46:27;;;;;;;17.65;6.93;;;;;;;;;;5047593;28;20492;-83
2021/12/17 10:49:00;;;;;;;17.10;7.00;;;;;;;;;;5041919;28;20021;-83
2021/12/17 10:51:32;;;;;;;;;;;;;;;;;;5051044;28;20025;-84
2021/12/17 10:54:07;;;;;;;14.97;6.23;;;;;;;;;;5041347;28;19913;-88
2021/12/17 10:56:38;;;;;;;13.70;5.65;;;;;;;;;;5041405;28;20021;-83
2021/12/17 10:59:19;;;;;;;13.10;5.82;;;;;;;;;;5062546;28;20033;-88
2021/12/17 11:01:59;;;;;;;12.98;5.45;;;;;;;;;;5048499;28;20032;-82
2021/12/17 11:04:35;;;;;;;11.18;4.95;;;;;;;;;;5048401;28;20111;-91
2021/12/17 11:07:08;;;;;;;11.32;4.88;;;;;;;;;;5036926;28;20385;-89
2021/12/17 11:09:54;;;;;;;9.95;4.20;;;;;;;;;;5047628;28;20049;-91
2021/12/17 11:12:20;;;;;;;11.65;4.55;;;;;;;;;;5048947;28;20400;-90
2021/12/17 11:14:46;;;;;;;9.43;4.00;;;;;;;;;;5050978;28;20033;-89
2021/12/17 11:17:14;;;;;;;8.60;3.70;;;;;;;;;;5046859;28;20025;-83
2021/12/17 11:19:40;;;;;;;8.18;3.55;;;;;;;;;;5041893;28;20477;-83
2021/12/17 11:22:06;;;;;;;6.25;3.00;;;;;;;;;;5051930;28;20124;-89
2021/12/17 11:24:34;;;;;;;6.28;2.75;;;;;;;;;;5058448;28;20060;-83
2021/12/17 11:27:01;;;;;;;6.07;2.90;;;;;;;;;;5049855;28;20047;-88
2021/12/17 11:29:27;;;;;;;5.07;2.47;;;;;;;;;;5049854;28;20116;-83
2021/12/17 11:31:53;;;;;;;7.40;3.17;;;;;;;;;;5050274;28;20079;-83
2021/12/17 11:34:19;;;;;;;6.13;2.70;;;;;;;;;;5054837;28;20033;-83
2021/12/17 11:36:46;;;;;;;6.43;2.70;;;;;;;;;;5049746;28;20021;-84
2021/12/17 11:39:26;;;;;;;6.20;2.65;;;;;;;;;;5049455;28;20764;-91
2021/12/17 11:42:09;;;;;;;5.95;2.53;;;;;;;;;;5054711;28;20029;-86
2021/12/17 11:47:43;;;;;;;6.72;2.55;;;;;;;;;;5054213;28;20082;-90
2021/12/17 11:50:11;;;;;;;6.97;2.83;;;;;;;;;;5052047;28;20034;-83
2021/12/17 11:52:55;;;;;;;8.85;3.33;;;;;;;;;;5060578;28;20033;-88
2021/12/17 11:55:22;;;;;;;7.30;3.53;;;;;;;;;;5063390;28;20021;-87
2021/12/17 11:57:49;;;;;;;8.98;3.65;;;;;;;;;;5054209;28;20021;-84
2021/12/17 12:00:16;;;;;;;9.13;4.00;;;;;;;;;;5054586;28;20025;-88
2021/12/17 12:02:54;;;;;;;7.85;3.90;;;;;;;;;;5055348;28;20032;-88
2021/12/17 12:05:40;;;;;;;6.90;3.30;;;;;;;;;;5050650;28;20081;-83
2021/12/17 12:08:47;;;;;;;6.50;3.90;;;;;;;;;;5048249;28;20083;-88
2021/12/17 12:11:17;;;;;;;8.18;3.47;;;;;;;;;;5069822;28;20025;-83
2021/12/17 12:13:47;;;;;;;7.65;3.60;;;;;;;;;;5054390;28;20036;-83
2021/12/17 12:16:21;;;;;;;5.65;3.05;;;;;;;;;;5057347;28;20024;-83
2021/12/17 12:18:57;;;;;;;8.02;3.53;;;;;;;;;;5049813;28;20496;-83
2021/12/17 12:21:34;;;;;;;7.50;3.40;;;;;;;;;;5055574;28;20387;-90
2021/12/17 12:24:13;;;;;;;10.60;3.85;;;;;;;;;;5052621;28;20056;-83
2021/12/17 12:26:45;;;;;;;7.47;3.45;;;;;;;;;;5056110;28;20120;-82
2021/12/17 12:29:17;;;;;;;8.48;3.97;;;;;;;;;;5060291;28;20032;-89
2021/12/17 12:31:46;;;;;;;7.97;4.20;;;;;;;;;;5050027;28;20480;-84
2021/12/17 12:34:28;;;;;;;7.63;3.92;;;;;;;;;;5053101;28;20548;-82
2021/12/17 12:37:17;;;;;;;7.00;3.58;;;;;;;;;;5055297;28;20112;-88
2021/12/17 12:39:52;;;;;;;6.43;3.28;;;;;;;;;;5044466;28;20040;-88
2021/12/17 12:42:22;;;;;;;5.38;3.80;;;;;;;;;;5052942;28;20037;-91
2021/12/17 12:44:48;;;;;;;5.20;3.72;;;;;;;;;;5052126;28;20029;-83
2021/12/17 12:47:22;;;;;;;4.93;3.28;;;;;;;;;;5059666;28;20547;-82
2021/12/17 12:50:15;;;;;;;5.03;2.97;;;;;;;;;;5049356;28;20029;-82
2021/12/17 12:52:45;;;;;;;7.30;2.80;;;;;;;;;;5048704;28;20561;-83
2021/12/17 12:55:40;;;;;;;4.18;2.50;;;;;;;;;;5045006;28;20029;-83
2021/12/17 12:58:08;;;;;;;3.70;2.45;;;;;;;;;;5053104;28;20435;-87
2021/12/17 13:00:50;;;;;;;3.40;2.17;;;;;;;;;;5040741;28;20056;-82
2021/12/17 13:03:18;;;;;;;3.97;2.13;;;;;;;;;;5053569;28;20032;-91
2021/12/17 13:05:47;;;;;;;3.97;2.33;;;;;;;;;;5050750;28;20032;-89
2021/12/17 13:08:14;;;;;;;4.50;2.38;;;;;;;;;;5046836;28;20025;-84
2021/12/17 13:10:44;;;;;;;4.00;2.47;;;;;;;;;;5016844;28;20495;-91
2021/12/17 13:21:32;;;;;;;4.20;2.58;;;;;;;;;;5031392;28;20036;-88
2021/12/17 13:24:16;;;;;;;4.70;2.45;;;;;;;;;;5015293;28;20113;-91
2021/12/17 13:26:54;;;;;;;5.63;2.80;;;;;;;;;;5010772;28;20385;-83
2021/12/17 13:29:21;;;;;;;4.40;2.60;;;;;;;;;;5035880;28;20029;-91
2021/12/17 13:31:48;;;;;;;4.40;2.50;;;;;;;;;;5013654;28;20075;-84
2021/12/17 13:34:31;;;;;;;4.35;2.15;;;;;;;;;;5008221;28;20040;-84
2021/12/17 13:36:56;;;;;;;4.38;2.05;;;;;;;;;;5032329;28;20025;-88
2021/12/17 13:39:25;;;;;;;4.93;3.08;;;;;;;;;;5012496;28;20033;-91
2021/12/17 13:41:51;;;;;;;3.95;2.60;;;;;;;;;;5016982;28;20033;-89
2021/12/17 13:44:33;;;;;;;3.92;2.58;;;;;;;;;;5029376;28;20029;-82
2021/12/17 13:47:18;;;;;;;5.32;3.15;;;;;;;;;;5032467;28;20020;-89
2021/12/17 13:49:50;;;;;;;5.60;3.10;;;;;;;;;;5015912;28;20558;-83
2021/12/17 13:52:17;;;;;;;5.22;3.25;;;;;;;;;;5012145;28;20506;-90
2021/12/17 13:54:45;;;;;;;6.07;3.53;;;;;;;;;;5013217;28;20091;-90
2021/12/17 13:57:14;;;;;;;8.82;3.70;;;;;;;;;;5016246;28;20029;-83
2021/12/17 13:59:40;;;;;;;5.50;4.10;;;;;;;;;;5016495;28;20029;-83
2021/12/17 14:02:15;;;;;;;5.68;3.80;;;;;;;;;;5014013;28;20505;-83
2021/12/17 14:04:42;;;;;;;5.70;3.47;;;;;;;;;;5015710;28;20040;-91
2021/12/17 14:07:09;;;;;;;6.95;3.50;;;;;;;;;;5014790;28;20014;-82
2021/12/17 14:09:35;;;;;;;6.40;3.05;;;;;;;;;;5038430;28;20052;-82
2021/12/17 14:12:30;;;;;;;6.72;3.45;;;;;;;;;;5051989;28;20098;-89
2021/12/17 14:15:04;;;;;;;5.93;3.22;;;;;;;;;;5053430;28;20511;-88
2021/12/17 14:17:57;;;;;;;6.72;3.72;;;;;;;;;;5047759;28;20032;-90
2021/12/17 14:20:25;;;;;;;6.73;4.03;;;;;;;;;;5051877;28;20463;-91
2021/12/17 14:22:59;;;;;;;6.60;3.97;;;;;;;;;;5053949;28;20021;-83
2021/12/17 14:25:32;;;;;;;6.78;3.78;;;;;;;;;;5052954;28;20021;-90
2021/12/17 14:28:21;;;;;;;4.82;3.35;;;;;;;;;;5052951;28;20491;-83
2021/12/17 14:31:09;;;;;;;7.13;3.97;;;;;;;;;;5048403;28;20121;-90
2021/12/17 14:33:40;;;;;;;5.25;3.70;;;;;;;;;;5051179;28;20476;-84
2021/12/17 14:36:11;;;;;;;6.72;3.80;;;;;;;;;;5047475;28;20052;-92
2021/12/17 14:38:54;;;;;;;7.57;3.63;;;;;;;;;;5054955;28;20032;-83
2021/12/17 14:41:29;;;;;;;6.40;4.10;;;;;;;;;;5046841;28;20119;-90
2021/12/17 14:44:03;;;;;;;4.53;3.38;;;;;;;;;;5048139;28;20025;-92
2021/12/17 14:46:46;;;;;;;5.93;3.85;;;;;;;;;;5046369;28;20081;-84
2021/12/17 14:49:27;;;;;;;5.93;3.97;;;;;;;;;;5052055;28;20017;-89
2021/12/17 15:05:17;;;;;;;5.22;3.40;;;;;;;;;;5052535;28;20028;-83
2021/12/17 15:07:43;;;;;;;7.63;4.35;;;;;;;;;;5050487;28;20083;-89
2021/12/17 15:10:10;;;;;;;6.25;4.28;;;;;;;;;;5050036;28;20044;-89
2021/12/17 15:15:13;;;;;;;6.47;3.70;;;;;;;;;;5055693;28;20021;-83
2021/12/17 15:17:39;;;;;;;5.60;3.75;;;;;;;;;;5044262;28;20017;-83
2021/12/17 15:20:07;;;;;;;6.30;3.78;;;;;;;;;;5051025;28;20048;-89
2021/12/17 15:22:33;;;;;;;5.20;3.53;;;;;;;;;;5049457;28;20021;-90
2021/12/17 15:24:58;;;;;;;6.70;3.90;;;;;;;;;;5052193;28;20203;-90
2021/12/17 15:27:24;;;;;;;5.53;3.75;;;;;;;;;;5050686;28;20029;-88
2021/12/17 15:29:49;;;;;;;6.47;4.10;;;;;;;;;;5047450;28;20097;-83
2021/12/17 15:32:15;;;;;;;5.43;3.95;;;;;;;;;;5055005;28;20171;-89
2021/12/17 15:34:40;;;;;;;7.22;3.88;;;;;;;;;;5053940;28;20035;-89
2021/12/17 15:37:06;;;;;;;5.22;3.92;;;;;;;;;;5051199;28;20027;-83
2021/12/17 15:39:31;;;;;;;6.22;3.97;;;;;;;;;;5054971;28;20086;-84
2021/12/17 15:41:56;;;;;;;6.18;4.30;;;;;;;;;;5054600;28;20027;-83
2021/12/17 15:44:22;;;;;;;5.65;3.90;;;;;;;;;;5054212;28;20385;-83
2021/12/17 15:46:50;;;;;;;6.22;3.85;;;;;;;;;;5055958;28;20029;-91
2021/12/17 15:49:16;;;;;;;6.10;4.00;;;;;;;;;;5056582;28;20380;-89
2021/12/17 15:51:41;;;;;;;5.97;3.97;;;;;;;;;;5052483;28;20025;-89
2021/12/17 15:54:07;;;;;;;5.47;3.80;;;;;;;;;;5054422;28;20013;-89
2021/12/17 15:56:32;;;;;;;6.88;4.00;;;;;;;;;;5053643;28;20507;-85
2021/12/17 15:58:59;;;;;;;5.88;4.10;;;;;;;;;;5046533;28;20025;-82
2021/12/17 16:01:24;;;;;;;6.72;4.32;;;;;;;;;;5053062;28;20060;-83
2021/12/17 16:03:50;;;;;;;6.47;3.90;;;;;;;;;;5046090;28;20029;-83
2021/12/17 16:06:18;;;;;;;7.05;4.50;;;;;;;;;;5054086;28;20103;-83
2021/12/17 16:08:48;;;;;;;6.18;4.30;;;;;;;;;;5052292;28;20075;-89
2021/12/17 16:21:58;;;;;;;6.93;4.53;;;;;;;;;;5045675;28;20510;-83
2021/12/17 16:24:25;;;;;;;6.63;4.10;;;;;;;;;;5057538;28;20036;-89
2021/12/17 16:26:51;;;;;;;6.15;4.20;;;;;;;;;;5055993;28;20539;-89
2021/12/17 16:29:18;;;;;;;7.88;4.40;;;;;;;;;;5046693;28;20108;-83
2021/12/17 16:31:45;;;;;;;7.15;4.80;;;;;;;;;;5053839;28;20033;-85
2021/12/17 16:34:10;;;;;;;5.80;4.18;;;;;;;;;;5055959;28;20056;-84
2021/12/17 16:36:38;;;;;;;6.78;4.45;;;;;;;;;;5053494;28;20480;-84
2021/12/17 16:39:07;;;;;;;8.20;4.78;;;;;;;;;;5050439;28;20064;-84
2021/12/17 16:41:32;;;;;;;8.57;5.53;;;;;;;;;;5053094;28;20032;-86
2021/12/17 16:44:04;;;;;;;7.85;5.25;;;;;;;;;;5059786;28;20079;-89
2021/12/17 16:49:15;;;;;;;8.15;5.53;;;;;;;;;;5047305;28;20392;-89
2021/12/17 16:51:41;;;;;;;;;;;;;;;;;;5047342;28;20032;-90
2021/12/17 16:54:07;;;;;;;7.40;5.07;;;;;;;;;;5053363;28;19970;-83
2021/12/17 16:56:38;;;;;;;9.25;6.30;;;;;;;;;;5059067;28;20093;-91
2021/12/17 16:59:04;;;;;;;7.75;5.38;;;;;;;;;;5054839;28;20033;-88
2021/12/17 17:01:32;;;;;;;9.20;6.43;;;;;;;;;;5043456;28;20086;-85
2021/12/17 17:03:58;;;;;;;8.48;6.00;;;;;;;;;;5043757;28;20078;-88
2021/12/17 17:06:24;;;;;;;9.25;6.10;;;;;;;;;;5046437;28;20061;-84
2021/12/17 17:08:49;;;;;;;7.57;5.63;;;;;;;;;;5044559;28;20963;-83
2021/12/17 17:11:16;;;;;;;8.27;6.03;;;;;;;;;;5037725;28;20078;-89
2021/12/17 17:13:42;;;;;;;8.77;5.28;;;;;;;;;;5036152;28;20078;-88
2021/12/17 17:16:39;;;;;;;9.15;5.57;;;;;;;;;;5045739;28;20041;-85
2021/12/17 17:19:05;;;;;;;11.85;6.40;;;;;;;;;;5055250;28;20142;-87
2021/12/17 17:21:33;;;;;;;9.75;6.55;;;;;;;;;;5048653;28;20025;-88
2021/12/17 17:24:08;;;;;;;8.75;6.30;;;;;;;;;;5061808;28;20033;-87
2021/12/17 17:26:40;;;;;;;10.43;6.63;;;;;;;;;;5050072;28;20029;-88
2021/12/17 17:29:08;;;;;;;8.13;6.28;;;;;;;;;;5046092;28;20021;-88
2021/12/17 17:31:35;;;;;;;8.80;6.00;;;;;;;;;;5043756;28;20055;-87
2021/12/17 17:34:03;;;;;;;8.57;6.60;;;;;;;;;;5046968;28;20021;-89
2021/12/17 17:36:28;;;;;;;9.45;6.55;;;;;;;;;;5050403;28;20031;-85
2021/12/17 17:38:55;;;;;;;10.57;7.45;;;;;;;;;;5043281;28;20029;-91
2021/12/17 17:41:24;;;;;;;12.00;7.72;;;;;;;;;;5044844;28;20075;-88
2021/12/17 17:43:52;;;;;;;10.63;6.88;;;;;;;;;;5048006;28;20469;-87
2021/12/17 17:46:18;;;;;;;12.85;7.57;;;;;;;;;;5047921;28;20860;-89
2021/12/17 17:48:43;;;;;;;10.80;6.82;;;;;;;;;;5047278;28;20028;-89
2021/12/17 17:51:42;;;;;;;10.52;7.55;;;;;;;;;;5046527;28;20036;-83
2021/12/17 17:54:10;;;;;;;11.73;7.28;;;;;;;;;;5047064;28;20053;-85
2021/12/17 17:56:56;;;;;;;10.15;7.05;;;;;;;;;;5048495;28;20029;-83
2021/12/17 17:59:21;;;;;;;10.13;6.43;;;;;;;;;;5047019;28;20048;-90
2021/12/17 18:01:47;;;;;;;11.15;7.80;;;;;;;;;;5054348;28;20029;-84
2021/12/17 18:04:13;;;;;;;8.88;6.18;;;;;;;;;;5049641;28;20028;-91
2021/12/17 18:06:39;;;;;;;11.55;6.80;;;;;;;;;;5051875;28;20497;-85
2021/12/17 18:09:05;;;;;;;11.20;7.45;;;;;;;;;;5049084;28;20040;-89
2021/12/17 18:11:30;;;;;;;9.95;7.35;;;;;;;;;;5048467;28;20029;-84
2021/12/17 18:13:55;;;;;;;11.27;7.75;;;;;;;;;;5055412;28;20123;-90